Terminal Aerodrome Forecast
Issued by NWS

Home | Current Version | Previous Version | Text Only | Print | Product List | Glossary On
Versions: 1 2 3 4 5 6 7 8 9 10 11 12 13 14 15 16 17 18 19
000
FTUS45 KABQ 020209 AAA
TAFAEG
TAF AMD
KAEG 020209Z 0202/0224 11015G22KT P6SM VCSH BKN040
      TEMPO 0202/0204 5SM -RA BR OVC018
     FM020400 13012G20KT P6SM VCSH BKN025 BKN070
     FM020700 12008KT P6SM BKN025 BKN060
      TEMPO 0208/0212 5SM BR BKN012 OVC025
     FM021200 04006KT 5SM BR BKN012 OVC025
     FM021700 16006KT P6SM SCT035 BKN080=

USA.gov is the U.S. government's official web portal to all federal, state and local government web resources and services.